Latest Coastal Weather Observations for Avalon

IDV60701

Issued at 12:32 am EST Saturday 19 August 2017 (issued every 10 minutes, with the page automatically refreshed every 10 minutes)

About coastal observations | Map of coastal stations | Coastal observations for VIC | Marine services | Other Formats
Station Details ID: 087113 Name: AVALON AIRPORT Lat: -38.03 Lon: 144.48 Height: 10.6 m
Data from the previous 72 hours. | See also: Recent months at Avalon
Date/Time
EST
Temp
°C
Wind Pressure Rain since
9am
mm
Weather Cloud Vis
km
Sea
Height
m
Swell
Dir  Spd
kts
Gust
kts
hPa Trend Height
m
Period
s
Dir
19/12:30am 6.1 W 8 9 1021.1 - 7.6 - Partly cloudy 10 - - - -
19/12:00am 6.5 WSW 10 15 1021.2 - 7.4 Showers Cloudy 10 - - - -
 
Date/Time
EST
Temp
°C
Wind Pressure Rain since
9am
mm
Weather Cloud Vis
km
Sea
Height
m
Swell
Dir  Spd
kts
Gust
kts
hPa Trend Height
m
Period
s
Dir
18/11:30pm 6.6 WSW 8 11 1020.9 - 7.0 - Partly cloudy 10 - - - -
18/11:00pm 6.6 W 12 17 1020.7 - 6.8 - Partly cloudy 10 - - - -
18/10:30pm 6.5 W 10 13 1020.3 - 6.6 - Partly cloudy 10 - - - -
18/10:00pm 6.8 W 11 15 1020.1 - 6.6 - Partly cloudy 10 - - - -
18/09:30pm 6.5 W 12 14 1019.5 - 6.6 - - 10 - - - -
18/09:00pm 6.7 W 11 15 1019.2 - 6.6 Showers Cloudy 10 - - - -
18/08:30pm 7.1 W 9 14 1018.9 - 6.4 - Partly cloudy 10 - - - -
18/08:00pm 6.6 W 12 15 1018.4 - 6.4 - Partly cloudy 10 - - - -
18/07:30pm 6.9 W 11 15 1017.9 - 6.4 - Partly cloudy 10 - - - -
18/07:00pm 6.7 W 7 11 1017.5 - 6.4 - Partly cloudy 10 - - - -
18/06:30pm 8.1 W 11 16 1016.8 - 6.4 - Partly cloudy 10 - - - -
18/06:00pm 8.6 W 12 16 1016.4 - 6.4 - Cloudy 10 - - - -
18/05:30pm 9.1 WSW 13 20 1015.7 - 6.4 - Partly cloudy 10 - - - -
18/05:00pm 9.1 WNW 13 17 1015.1 - 6.4 - Partly cloudy 10 - - - -
18/04:30pm 8.9 WNW 15 19 1014.6 - 6.4 - Partly cloudy 10 - - - -
18/04:00pm 9.0 W 14 18 1014.0 - 6.4 - Partly cloudy 10 - - - -
18/03:30pm 9.7 W 17 27 1013.4 - 6.4 - Partly cloudy 10 - - - -
18/03:22pm 9.9 W 17 27 1013.4 - 6.4 - Partly cloudy 10 - - - -
18/03:00pm 10.3 W 15 21 1013.2 - 6.4 Rain Mostly cloudy 10 - - - -
18/02:34pm 10.5 WSW 20 30 1012.7 - 6.4 - Partly cloudy 10 - - - -
18/02:30pm 10.9 WSW 19 25 1012.7 - 6.4 - Partly cloudy 10 - - - -
18/02:00pm 8.8 WSW 18 28 1012.3 - 6.4 - Partly cloudy 10 - - - -
18/01:52pm 10.1 W 17 28 1012.0 - 5.6 - Partly cloudy 10 - - - -
18/01:30pm 10.5 W 17 23 1011.8 - 5.6 - Partly cloudy 10 - - - -
18/01:00pm 9.8 W 17 23 1011.4 - 5.6 - Partly cloudy 10 - - - -
18/12:30pm 8.3 W 17 23 1011.4 - 5.6 - Partly cloudy 10 - - - -
18/12:20pm 7.0 W 15 19 1011.1 - 5.6 - Partly cloudy 10 - - - -
18/12:08pm 6.5 WSW 17 25 1011.4 - 5.6 - Partly cloudy 4 - - - -
18/12:00pm 6.1 SW 20 32 1011.8 - 4.8 Showers Cloudy 2 - - - -
18/11:58am 6.5 SW 20 32 1011.5 - 4.0 - Partly cloudy 3 - - - -
18/11:55am 7.1 SW 18 27 1011.3 - 2.0 - Partly cloudy 5 - - - -
18/11:40am 10.6 W 17 27 1010.8 - 0.0 - Partly cloudy 10 - - - -
18/11:30am 10.3 W 20 27 1010.6 - 0.0 - Partly cloudy 10 - - - -
18/11:00am 10.6 W 23 31 1010.4 - 0.0 - Partly cloudy 10 - - - -
18/10:30am 9.5 W 21 32 1009.8 - 0.0 - Partly cloudy 10 - - - -
18/10:25am 9.7 W 21 32 1009.9 - 0.0 - Partly cloudy 10 - - - -
18/10:00am 9.6 WNW 23 31 1009.6 - 0.0 - Partly cloudy 10 - - - -
18/09:30am 9.1 WNW 22 29 1009.3 - 0.0 - Partly cloudy 10 - - - -
18/09:00am 8.0 WNW 23 31 1008.8 - 1.8 Rain Cloudy 10 - - - -
18/08:30am 7.6 WNW 25 35 1008.1 - 1.8 - Partly cloudy 10 - - - -
18/08:19am 7.9 WNW 28 39 1007.8 - 1.8 - Partly cloudy 10 - - - -
18/08:00am 7.7 WNW 24 30 1007.8 - 1.8 - - 10 - - - -
18/07:30am 7.0 WNW 21 27 1007.1 - 1.8 - - 10 - - - -
18/07:00am 7.0 WNW 20 26 1006.8 - 1.8 - Partly cloudy 10 - - - -
18/06:30am 6.9 WNW 21 27 1006.2 - 1.8 - Partly cloudy 10 - - - -
18/06:00am 6.8 WNW 23 31 1005.6 - 1.8 Showers - 10 - - - -
18/05:33am 7.2 WNW 22 32 1005.2 - 1.8 - Partly cloudy 10 - - - -
18/05:30am 7.1 WNW 23 32 1005.1 - 1.8 - Partly cloudy 10 - - - -
18/05:00am 7.5 WNW 20 28 1004.9 - 1.4 - Partly cloudy 10 - - - -
18/04:30am 7.6 WNW 20 27 1004.5 - 1.4 - Partly cloudy 10 - - - -
18/04:05am 7.6 WNW 20 30 1003.9 - 1.4 - Partly cloudy 10 - - - -
18/04:00am 7.5 W 20 27 1003.9 - 1.4 - Partly cloudy 10 - - - -
18/03:30am 7.9 WNW 17 24 1003.8 - 1.4 - - 10 - - - -
18/03:00am 8.0 WNW 17 25 1003.6 - 1.4 - - 10 - - - -
18/02:30am 8.3 WNW 12 22 1003.4 - 1.4 - Partly cloudy 10 - - - -
18/02:00am 7.8 WNW 13 19 1003.6 - 1.4 - Partly cloudy 10 - - - -
18/01:30am 7.3 NW 7 12 1003.8 - 1.4 - Partly cloudy 10 - - - -
18/01:00am 7.4 WNW 6 11 1003.7 - 1.4 - Partly cloudy 10 - - - -
18/12:30am 7.9 WNW 13 17 1003.8 - 1.4 - Partly cloudy 10 - - - -
18/12:00am 7.8 WNW 14 17 1003.7 - 1.4 - - 10 - - - -
 
Date/Time
EST
Temp
°C
Wind Pressure Rain since
9am
mm
Weather Cloud Vis
km
Sea
Height
m
Swell
Dir  Spd
kts
Gust
kts
hPa Trend Height
m
Period
s
Dir
17/11:30pm 7.6 NW 18 23 1003.0 - 1.4 - - 10 - - - -
17/11:00pm 7.7 NW 17 22 1002.9 - 1.4 - - 10 - - - -
17/10:30pm 7.9 NW 18 24 1002.7 - 1.4 - - 10 - - - -
17/10:00pm 7.9 WNW 20 30 1002.6 - 1.4 - - 10 - - - -
17/09:38pm 8.4 WNW 24 34 1002.5 - 1.4 - - 10 - - - -
17/09:30pm 8.5 WNW 24 32 1002.3 - 1.4 - - 10 - - - -
17/09:00pm 8.2 NW 17 23 1002.8 - 1.4 - - 10 - - - -
17/08:30pm 8.0 NW 13 17 1002.9 - 1.4 - - 10 - - - -
17/08:00pm 7.5 NNW 14 18 1002.6 - 1.4 - - 10 - - - -
17/07:30pm 7.4 NW 15 19 1002.6 - 1.4 - - 10 - - - -
17/07:00pm 7.5 NW 16 21 1002.5 - 1.4 - Partly cloudy 10 - - - -
17/06:30pm 7.9 WNW 18 24 1002.8 - 1.2 - Partly cloudy 10 - - - -
17/06:10pm 8.5 WSW 15 28 1002.8 - 0.8 - Partly cloudy 10 - - - -
17/06:00pm 9.5 WSW 10 15 1002.1 - 0.6 - Cloudy 10 - - - -
17/05:30pm 9.6 WNW 11 15 1001.5 - 0.6 - Partly cloudy 10 - - - -
17/05:00pm 9.6 NW 10 13 1001.5 - 0.6 - Partly cloudy 10 - - - -
17/04:30pm 9.4 NW 12 16 1001.3 - 0.6 - Partly cloudy 10 - - - -
17/04:17pm 9.4 NW 15 21 1001.2 - 0.6 - Partly cloudy 10 - - - -
17/04:00pm 8.9 W 21 31 1001.4 - 0.6 - Partly cloudy 9 - - - -
17/03:52pm 9.1 W 21 31 1001.8 - 0.2 - Partly cloudy 9 - - - -
17/03:47pm 10.1 W 25 35 1001.6 - 0.0 - Partly cloudy 10 - - - -
17/03:30pm 13.8 WNW 21 29 1000.3 - 0.0 - Partly cloudy 10 - - - -
17/03:00pm 15.3 WNW 21 31 1000.1 - 0.0 - Mostly cloudy 10 - - - -
17/02:32pm 14.2 WNW 23 34 1000.0 - 0.0 - Partly cloudy 10 - - - -
17/02:30pm 14.5 WNW 22 30 1000.1 - 0.0 - Partly cloudy 10 - - - -
17/02:00pm 15.3 WNW 21 26 1000.0 - 0.0 - - 10 - - - -
17/01:49pm 14.6 WNW 22 32 1000.2 - 0.0 - Partly cloudy 10 - - - -
17/01:30pm 14.4 WNW 23 31 1000.0 - 0.0 - Partly cloudy 10 - - - -
17/01:13pm 14.7 WNW 28 39 1000.1 - 0.0 - Partly cloudy 10 - - - -
17/01:00pm 15.1 WNW 26 35 1000.2 - 0.0 - Partly cloudy 10 - - - -
17/12:30pm 14.9 WNW 26 36 1000.4 - 0.0 - Partly cloudy 10 - - - -
17/12:07pm 15.0 WNW 24 34 1000.2 - 0.0 - Partly cloudy 10 - - - -
17/12:00pm 14.8 WNW 26 35 1000.2 - 0.0 - Mostly clear 10 - - - -
17/11:30am 14.0 WNW 24 34 1000.4 - 0.0 - - 10 - - - -
17/11:29am 14.2 WNW 23 33 1000.4 - 0.0 - - 10 - - - -
17/11:00am 13.4 WNW 21 29 1000.7 - 0.0 - - 10 - - - -
17/10:30am 11.5 NW 17 27 1001.0 - 0.0 - Partly cloudy 10 - - - -
17/10:14am 11.5 NW 16 30 1000.9 - 0.0 - Partly cloudy 10 - - - -
17/10:00am 11.2 NW 18 26 1001.4 - 0.0 - - 10 - - - -
17/09:30am 10.3 NW 14 18 1001.5 - 0.0 - Cloudy 10 - - - -
17/09:00am 10.3 NW 15 21 1001.1 - 1.2 - - 10 - - - -
17/08:30am 10.3 NNW 17 22 1000.8 - 1.2 - Cloudy 10 - - - -
17/08:00am 11.1 NW 17 23 1000.8 - 1.2 - Cloudy 10 - - - -
17/07:30am 10.8 NNW 12 15 1001.0 - 1.2 - Partly cloudy 10 - - - -
17/07:00am 10.3 NNW 9 11 1001.0 - 1.2 - Partly cloudy 10 - - - -
17/06:30am 9.9 NNW 10 12 1000.8 - 1.2 - Partly cloudy 10 - - - -
17/06:00am 10.1 NW 10 14 1000.6 - 1.2 - Cloudy 10 - - - -
17/05:30am 9.8 NW 12 16 1000.6 - 1.2 - - 10 - - - -
17/05:00am 9.8 NW 10 13 1000.7 - 1.2 - Partly cloudy 10 - - - -
17/04:30am 10.3 WNW 11 15 1000.6 - 1.2 - Partly cloudy 10 - - - -
17/04:00am 10.5 NW 13 16 1000.5 - 1.2 - - 10 - - - -
17/03:30am 10.8 NW 13 17 1000.6 - 1.2 - - 10 - - - -
17/03:00am 11.4 NW 16 21 1000.7 - 1.2 - Cloudy 10 - - - -
17/02:30am 11.3 NW 16 21 1000.9 - 1.2 - Partly cloudy 10 - - - -
17/02:00am 11.1 NW 15 20 1000.7 - 1.2 - Partly cloudy 10 - - - -
17/01:30am 11.1 NW 13 19 1001.1 - 1.2 - Partly cloudy 10 - - - -
17/01:00am 11.2 NW 16 22 1001.1 - 1.0 - Partly cloudy 10 - - - -
17/12:30am 10.8 NW 15 19 1001.5 - 1.0 - Partly cloudy 10 - - - -
17/12:00am 11.2 NW 15 20 1001.3 - 0.6 Showers Cloudy 10 - - - -
 
Date/Time
EST
Temp
°C
Wind Pressure Rain since
9am
mm
Weather Cloud Vis
km
Sea
Height
m
Swell
Dir  Spd
kts
Gust
kts
hPa Trend Height
m
Period
s
Dir
16/11:30pm 11.9 NW 17 23 1001.3 - 0.6 - Partly cloudy 10 - - - -
16/11:00pm 12.0 NNW 13 18 1001.4 - 0.6 - Partly cloudy 10 - - - -
16/10:30pm 11.7 NW 13 20 1001.6 - 0.6 - Partly cloudy 10 - - - -
16/10:00pm 11.8 NW 17 21 1001.7 - 0.6 - - 10 - - - -
16/09:30pm 11.5 NW 15 19 1001.8 - 0.6 - - 10 - - - -
16/09:00pm 12.0 NW 19 24 1001.7 - 0.6 Drizzle Mostly clear 10 - - - -
16/08:30pm 12.1 NW 23 35 1001.5 - 0.6 - Partly cloudy 10 - - - -
16/08:26pm 12.3 NW 23 35 1001.4 - 0.6 - Partly cloudy 10 - - - -
16/08:00pm 12.5 NW 21 26 1001.1 - 0.6 - Partly cloudy 10 - - - -
16/07:30pm 12.7 NW 20 27 1001.0 - 0.6 - Partly cloudy 10 - - - -
16/07:24pm 12.7 NW 18 27 1000.8 - 0.6 - Partly cloudy 10 - - - -
16/07:00pm 12.9 NW 17 21 1000.9 - 0.6 - Partly cloudy 10 - - - -
16/06:30pm 12.3 NW 15 20 1000.6 - 0.6 - - 10 - - - -
16/06:00pm 12.7 WNW 18 23 1000.4 - 0.6 - - 10 - - - -
16/05:30pm 12.8 WNW 18 22 1000.2 - 0.6 - Partly cloudy 10 - - - -
16/05:00pm 13.8 WNW 20 25 999.6 - 0.6 - Partly cloudy 10 - - - -
16/04:34pm 14.5 WNW 23 32 999.4 - 0.6 - Partly cloudy 10 - - - -
16/04:30pm 15.3 WNW 26 33 999.2 - 0.6 - Partly cloudy 10 - - - -
16/04:00pm 15.5 WNW 24 32 998.8 - 0.6 - - 10 - - - -
16/03:34pm 15.0 WNW 22 32 998.8 - 0.6 - - 10 - - - -
16/03:30pm 14.8 WNW 24 32 998.7 - 0.6 - - 10 - - - -
16/03:00pm 14.1 WNW 29 40 998.4 - 0.6 Rain Mostly clear 10 - - - -
16/02:52pm 13.4 WNW 29 39 998.3 - 0.6 - Partly cloudy 10 - - - -
16/02:30pm 13.3 WNW 25 31 998.2 - 0.6 - - 10 - - - -
16/02:13pm 10.8 WNW 33 55 998.7 - 0.6 - Partly cloudy 8 - - - -
16/02:08pm 11.6 WNW 30 55 998.6 - 0.4 - Partly cloudy 10 - - - -
16/02:07pm 14.0 WNW 28 47 998.2 - 0.4 - Partly cloudy 10 - - - -
16/02:06pm 14.5 WNW 27 37 998.0 - 0.4 - Partly cloudy 10 - - - -
16/02:00pm 15.1 WNW 24 29 997.7 - 0.4 - - 10 - - - -
16/01:30pm 12.5 WNW 23 30 997.8 - 0.4 - Partly cloudy 10 - - - -
16/01:19pm 11.7 WNW 25 31 997.9 - 0.4 - Partly cloudy 10 - - - -
16/01:00pm 11.6 W 26 34 998.0 - 0.4 - Partly cloudy 6 - - - -
16/12:30pm 16.2 WNW 32 43 997.1 - 0.0 - Partly cloudy 10 - - - -
16/12:00pm 15.6 WNW 36 48 997.0 - 0.0 - Mostly clear 10 - - - -
16/11:34am 15.5 WNW 34 48 996.6 - 0.0 - - 10 - - - -
16/11:30am 15.4 WNW 34 42 996.9 - 0.0 - - 10 - - - -
16/11:05am 15.0 WNW 35 45 996.5 - 0.0 - - 10 - - - -
16/11:00am 14.9 WNW 36 45 996.3 - 0.0 - - 10 - - - -
16/10:30am 14.3 WNW 34 44 996.3 - 0.0 - Partly cloudy 10 - - - -
16/10:00am 13.7 WNW 33 47 996.2 - 0.0 - - 10 - - - -
16/09:30am 13.4 WNW 29 39 996.1 - 0.0 - Partly cloudy 10 - - - -
16/09:00am 12.7 WNW 26 37 995.9 - 0.4 - - 10 - - - -
16/08:30am 12.0 WNW 25 34 995.9 - 0.4 - Partly cloudy 10 - - - -
16/08:00am 11.4 WNW 28 39 995.3 - 0.4 - Partly cloudy 10 - - - -
16/07:32am 11.4 WNW 28 39 994.9 - 0.4 - Partly cloudy 10 - - - -
16/07:30am 11.3 WNW 28 36 994.9 - 0.4 - Partly cloudy 10 - - - -
16/07:10am 11.6 WNW 31 43 994.4 - 0.4 - - 10 - - - -
16/07:00am 11.6 WNW 31 40 994.0 - 0.4 - - 10 - - - -
16/06:30am 11.7 WNW 26 36 993.6 - 0.4 - Partly cloudy 10 - - - -
16/06:14am 11.7 NW 20 31 993.1 - 0.4 - - 10 - - - -
16/06:00am 11.7 NW 18 25 992.9 - 0.4 - Mostly cloudy 10 - - - -
16/05:30am 11.7 NW 16 20 992.9 - 0.4 - - 10 - - - -
16/05:00am 11.0 NW 15 19 992.8 - 0.4 - - 10 - - - -
16/04:30am 10.6 NW 12 16 992.9 - 0.4 - - 10 - - - -
16/04:00am 10.6 NW 15 19 992.9 - 0.4 - - 10 - - - -
16/03:30am 9.5 NW 10 14 993.2 - 0.4 - - 10 - - - -
16/03:00am 10.3 NW 19 24 993.3 - 0.4 Showers Cloudy 10 - - - -
16/02:47am 11.3 WNW 19 34 994.0 - 0.4 - Partly cloudy 10 - - - -
16/02:30am 11.1 W 12 19 993.9 - 0.2 - Partly cloudy 10 - - - -
16/02:29am 11.1 W 11 19 994.0 - 0.2 - Partly cloudy 10 - - - -
16/02:00am 9.4 NNW 7 8 994.2 - 0.0 - - 10 - - - -
16/01:30am 11.3 WNW 12 15 994.4 - 0.0 - Partly cloudy 10 - - - -
16/01:00am 12.3 WSW 14 20 994.9 - 0.0 - - 10 - - - -
16/12:54am 13.0 WNW 13 20 994.9 - 0.0 - - 10 - - - -

Other Formats:

Comma delimited format used in spreadsheet applications
http://www.bom.gov.au/fwo/IDV60701/IDV60701.94854.axf

JavaScript Object Notation format (JSON) in row-major order
http://www.bom.gov.au/fwo/IDV60701/IDV60701.94854.json